createdAt,value
2022-11-02T00:01:34.303Z,12.80
2022-11-02T00:04:00.801Z,13.10
2022-11-02T00:06:27.255Z,13.30
2022-11-02T00:08:53.699Z,13.40
2022-11-02T00:11:20.180Z,13.50
2022-11-02T00:13:47.035Z,13.10
2022-11-02T00:16:15.645Z,13.10
2022-11-02T00:18:43.058Z,12.80
2022-11-02T00:21:10.792Z,12.80
2022-11-02T00:23:37.257Z,12.90
2022-11-02T00:26:03.792Z,13.00
2022-11-02T00:28:30.796Z,13.00
2022-11-02T00:30:57.656Z,13.20
2022-11-02T00:33:26.361Z,13.00
2022-11-02T00:35:54.121Z,12.50
2022-11-02T00:38:20.609Z,12.50
2022-11-02T00:40:47.043Z,12.60
2022-11-02T00:43:13.808Z,12.50
2022-11-02T00:45:40.259Z,12.80
2022-11-02T00:48:07.105Z,12.90
2022-11-02T00:50:33.747Z,12.80
2022-11-02T00:53:00.284Z,12.60
2022-11-02T00:55:27.540Z,12.30
2022-11-02T00:57:59.029Z,12.30
2022-11-02T01:00:25.521Z,12.30
2022-11-02T01:02:52.032Z,12.20
2022-11-02T01:05:18.618Z,12.50
2022-11-02T01:07:47.214Z,12.40
2022-11-02T01:10:13.719Z,12.10
2022-11-02T01:12:40.776Z,12.20
2022-11-02T01:15:10.450Z,12.10
2022-11-02T01:17:38.071Z,12.30
2022-11-02T01:20:05.734Z,12.50
2022-11-02T01:22:32.236Z,12.70
2022-11-02T01:24:58.725Z,12.70
2022-11-02T01:27:26.271Z,12.30
2022-11-02T01:29:53.101Z,11.80
2022-11-02T01:32:19.590Z,11.60
2022-11-02T01:34:46.120Z,11.20
2022-11-02T01:37:12.631Z,11.10
2022-11-02T01:39:39.088Z,11.70
2022-11-02T01:42:29.569Z,11.80
2022-11-02T01:44:56.231Z,11.80
2022-11-02T01:47:27.197Z,11.70
2022-11-02T01:49:57.738Z,11.80
2022-11-02T01:52:32.472Z,11.70
2022-11-02T01:55:16.574Z,11.50
2022-11-02T01:57:47.562Z,11.60
2022-11-02T02:00:16.623Z,12.00
2022-11-02T02:03:02.743Z,11.90
2022-11-02T02:05:30.996Z,11.50
2022-11-02T02:07:58.135Z,11.10
2022-11-02T02:10:24.795Z,11.50
2022-11-02T02:12:51.412Z,11.40
2022-11-02T02:15:22.789Z,11.00
2022-11-02T02:17:59.782Z,10.70
2022-11-02T02:20:35.515Z,10.80
2022-11-02T02:23:39.264Z,10.90
2022-11-02T02:26:20.929Z,10.60
2022-11-02T02:28:53.158Z,10.30
2022-11-02T02:31:26.782Z,10.60
2022-11-02T02:34:18.246Z,10.80
2022-11-02T02:37:07.048Z,10.70
2022-11-02T02:39:43.054Z,10.70
2022-11-02T02:42:13.808Z,10.70
2022-11-02T02:44:43.858Z,10.30
2022-11-02T02:47:17.476Z,10.40
2022-11-02T02:50:02.762Z,10.30
2022-11-02T02:52:30.775Z,10.20
2022-11-02T02:54:59.032Z,10.10
2022-11-02T02:57:27.947Z,10.30
2022-11-02T02:59:55.065Z,10.40
2022-11-02T03:02:26.947Z,9.90
2022-11-02T03:04:53.505Z,9.80
2022-11-02T03:07:32.788Z,10.00
2022-11-02T03:10:12.869Z,9.70
2022-11-02T03:12:57.926Z,9.50
2022-11-02T03:15:45.614Z,9.50
2022-11-02T03:18:21.045Z,9.60
2022-11-02T03:21:36.205Z,9.60
2022-11-02T03:24:30.518Z,10.00
2022-11-02T03:27:10.587Z,10.00
2022-11-02T03:30:10.191Z,9.60
2022-11-02T03:32:41.704Z,9.50
2022-11-02T03:35:16.482Z,9.30
2022-11-02T03:37:51.573Z,9.40
2022-11-02T03:40:22.564Z,9.50
2022-11-02T03:42:49.986Z,9.70
2022-11-02T03:45:20.055Z,9.80
2022-11-02T03:47:52.083Z,9.50
2022-11-02T03:50:20.859Z,9.50
2022-11-02T03:52:50.422Z,9.50
2022-11-02T03:55:25.468Z,9.70
2022-11-02T03:57:52.364Z,9.50
2022-11-02T04:00:25.327Z,9.50
2022-11-02T04:03:00.097Z,9.30
2022-11-02T04:05:36.553Z,9.30
2022-11-02T04:08:21.664Z,9.30
2022-11-02T04:11:11.358Z,9.30
2022-11-02T04:13:57.834Z,9.30
2022-11-02T04:16:28.354Z,9.20
2022-11-02T04:19:15.076Z,9.10
2022-11-02T04:22:03.019Z,9.10
2022-11-02T04:24:50.330Z,9.10
2022-11-02T04:27:20.966Z,9.20
2022-11-02T04:29:48.790Z,9.10
2022-11-02T04:32:35.560Z,9.10
2022-11-02T04:35:04.351Z,9.20
2022-11-02T04:37:49.640Z,9.30
2022-11-02T04:40:16.261Z,9.40
2022-11-02T04:42:46.966Z,9.10
2022-11-02T04:45:13.597Z,9.20
2022-11-02T04:47:40.790Z,9.20
2022-11-02T04:50:07.524Z,9.20
2022-11-02T04:52:34.117Z,9.10
2022-11-02T04:55:00.666Z,9.00
2022-11-02T04:57:27.371Z,9.10
2022-11-02T04:59:54.555Z,9.00
2022-11-02T05:02:21.224Z,8.90
2022-11-02T05:04:48.148Z,9.00
2022-11-02T05:07:15.244Z,8.90
2022-11-02T05:09:44.767Z,8.90
2022-11-02T05:12:12.874Z,8.80
2022-11-02T05:14:40.167Z,8.80
2022-11-02T05:17:07.203Z,9.00
2022-11-02T05:19:35.395Z,9.00
2022-11-02T05:22:03.138Z,9.10
2022-11-02T05:24:30.261Z,9.10
2022-11-02T05:26:56.866Z,9.30
2022-11-02T05:29:26.548Z,9.10
2022-11-02T05:31:53.274Z,9.00
2022-11-02T05:34:19.964Z,9.00
2022-11-02T05:36:48.163Z,9.10
2022-11-02T05:39:15.488Z,9.40
2022-11-02T05:41:42.028Z,9.70
2022-11-02T05:44:08.617Z,9.50
2022-11-02T05:46:38.372Z,9.60
2022-11-02T05:49:04.965Z,9.50
2022-11-02T05:51:31.419Z,9.10
2022-11-02T05:53:57.914Z,9.00
2022-11-02T05:56:25.355Z,8.90
2022-11-02T05:58:54.215Z,9.00
2022-11-02T06:01:21.288Z,8.80
2022-11-02T06:03:53.207Z,8.80
2022-11-02T06:06:20.425Z,8.80
2022-11-02T06:08:46.910Z,8.70
2022-11-02T06:11:14.045Z,8.80
2022-11-02T06:13:41.527Z,8.90
2022-11-02T06:16:09.514Z,9.00
2022-11-02T06:18:36.922Z,8.90
2022-11-02T06:21:03.634Z,8.90
2022-11-02T06:23:30.734Z,9.00
2022-11-02T06:25:58.854Z,9.10
2022-11-02T06:28:25.898Z,9.00
2022-11-02T06:30:52.679Z,9.10
2022-11-02T06:33:19.590Z,9.20
2022-11-02T06:35:51.429Z,9.00
2022-11-02T06:38:18.320Z,9.00
2022-11-02T06:40:59.396Z,9.30
2022-11-02T06:43:26.396Z,9.30
2022-11-02T06:45:56.907Z,9.40
2022-11-02T06:48:25.026Z,9.30
2022-11-02T06:50:53.109Z,9.50
2022-11-02T06:53:19.554Z,9.50
2022-11-02T06:55:51.695Z,9.20
2022-11-02T06:58:18.154Z,9.30
2022-11-02T07:00:45.026Z,9.30
2022-11-02T07:03:11.650Z,9.40
2022-11-02T07:05:38.177Z,9.40
2022-11-02T07:08:04.753Z,9.50
2022-11-02T07:10:31.994Z,9.50
2022-11-02T07:12:58.715Z,9.50
2022-11-02T07:15:26.328Z,9.60
2022-11-02T07:17:54.197Z,9.60
2022-11-02T07:20:20.853Z,9.60
2022-11-02T07:22:58.340Z,9.60
2022-11-02T07:25:27.100Z,9.80
2022-11-02T07:27:54.248Z,9.90
2022-11-02T07:30:21.046Z,9.90
2022-11-02T07:32:47.599Z,10.00
2022-11-02T07:35:15.922Z,10.10
2022-11-02T07:37:42.776Z,10.20
2022-11-02T07:40:11.374Z,10.40
2022-11-02T07:42:46.122Z,10.40
2022-11-02T07:45:13.123Z,10.40
2022-11-02T07:47:46.491Z,10.50
2022-11-02T07:50:14.187Z,10.60
2022-11-02T07:52:45.223Z,10.70
2022-11-02T07:55:12.955Z,10.70
2022-11-02T07:57:39.493Z,10.80
2022-11-02T08:00:06.862Z,11.00
2022-11-02T08:02:39.029Z,11.00
2022-11-02T08:05:06.111Z,11.10
2022-11-02T08:07:32.608Z,11.20
2022-11-02T08:09:59.150Z,11.60
2022-11-02T08:12:25.625Z,11.50
2022-11-02T08:14:52.120Z,11.90
2022-11-02T08:17:18.679Z,11.90
2022-11-02T08:19:45.140Z,12.00
2022-11-02T08:22:11.880Z,12.30
2022-11-02T08:24:38.324Z,12.90
2022-11-02T08:27:05.104Z,13.00
2022-11-02T08:29:31.850Z,12.70
2022-11-02T08:31:58.349Z,12.80
2022-11-02T08:34:24.915Z,13.20
2022-11-02T08:36:51.359Z,12.60
2022-11-02T08:39:19.233Z,12.80
2022-11-02T08:41:45.763Z,12.80
2022-11-02T08:44:12.228Z,12.80
2022-11-02T08:46:38.678Z,13.30
2022-11-02T08:49:05.210Z,13.20
2022-11-02T08:51:31.891Z,12.70
2022-11-02T08:53:58.449Z,12.90
2022-11-02T08:56:24.990Z,13.00
2022-11-02T08:58:51.476Z,12.50
2022-11-02T09:01:20.635Z,12.40
2022-11-02T09:03:47.178Z,12.30
2022-11-02T09:06:13.620Z,12.10
2022-11-02T09:08:40.171Z,12.00
2022-11-02T09:11:06.892Z,12.10
2022-11-02T09:13:33.454Z,12.00
2022-11-02T09:16:00.394Z,12.30
2022-11-02T09:18:27.114Z,12.40
2022-11-02T09:20:53.631Z,12.50
2022-11-02T09:23:20.757Z,12.50
2022-11-02T09:25:47.683Z,12.40
2022-11-02T09:28:15.475Z,12.50
2022-11-02T09:30:56.601Z,12.50
2022-11-02T09:33:23.032Z,12.50
2022-11-02T09:35:49.754Z,12.70
2022-11-02T09:38:18.520Z,12.50
2022-11-02T09:40:53.541Z,12.80
2022-11-02T09:43:26.060Z,13.10
2022-11-02T09:46:16.197Z,14.00
2022-11-02T09:48:51.052Z,14.00
2022-11-02T09:51:38.156Z,14.40
2022-11-02T09:54:41.984Z,14.60
2022-11-02T09:57:14.046Z,15.30
2022-11-02T09:59:40.900Z,14.90
2022-11-02T10:02:13.694Z,14.80
2022-11-02T10:05:05.093Z,15.00
2022-11-02T10:07:56.777Z,14.60
2022-11-02T10:10:23.171Z,14.90
2022-11-02T10:13:02.501Z,15.10
2022-11-02T10:15:38.292Z,15.20
2022-11-02T10:18:05.779Z,15.50
2022-11-02T10:20:40.299Z,15.70
2022-11-02T10:23:09.011Z,15.90
2022-11-02T10:25:36.243Z,16.40
2022-11-02T10:28:16.787Z,16.40
2022-11-02T10:30:44.281Z,16.30
2022-11-02T10:33:15.553Z,16.10
2022-11-02T10:36:04.895Z,16.00
2022-11-02T10:39:00.889Z,15.90
2022-11-02T10:42:04.883Z,16.30
2022-11-02T10:44:53.188Z,16.50
2022-11-02T10:47:24.998Z,16.60
2022-11-02T10:50:12.483Z,16.90
2022-11-02T10:52:42.296Z,17.20
2022-11-02T10:55:34.323Z,17.30
2022-11-02T10:58:04.275Z,17.50
2022-11-02T11:00:33.992Z,17.40
2022-11-02T11:03:13.613Z,17.70
2022-11-02T11:05:52.758Z,17.50
2022-11-02T11:08:37.481Z,17.90
2022-11-02T11:11:12.955Z,17.70
2022-11-02T11:16:35.367Z,18.20
2022-11-02T11:21:51.891Z,18.60
2022-11-02T11:24:30.208Z,18.80
2022-11-02T11:27:20.856Z,18.10
2022-11-02T11:29:54.709Z,18.20
2022-11-02T11:32:30.179Z,18.30
2022-11-02T11:35:02.926Z,18.90
2022-11-02T11:37:29.789Z,18.30
2022-11-02T11:40:00.049Z,18.10
2022-11-02T11:42:29.152Z,17.80
2022-11-02T11:45:03.469Z,17.50
2022-11-02T11:47:34.350Z,17.20
2022-11-02T11:50:12.891Z,17.20
2022-11-02T11:52:46.906Z,17.00
2022-11-02T11:55:31.656Z,16.70
2022-11-02T11:58:25.358Z,16.00
2022-11-02T12:01:17.635Z,16.30
2022-11-02T12:04:01.150Z,16.30
2022-11-02T12:06:50.690Z,16.00
2022-11-02T12:09:28.091Z,15.90
2022-11-02T12:12:09.669Z,16.20
2022-11-02T12:15:05.625Z,16.00
2022-11-02T12:17:59.508Z,15.90
2022-11-02T12:20:53.675Z,15.90
2022-11-02T12:23:38.895Z,15.70
2022-11-02T12:26:18.321Z,15.90
2022-11-02T12:29:06.211Z,15.80
2022-11-02T12:31:40.069Z,16.10
2022-11-02T12:34:37.308Z,16.00
2022-11-02T12:40:44.347Z,16.10
2022-11-02T12:43:43.936Z,15.90
2022-11-02T12:46:20.941Z,15.90
2022-11-02T12:49:05.754Z,15.80
2022-11-02T12:52:09.522Z,15.90
2022-11-02T12:54:43.344Z,15.90
2022-11-02T12:57:15.519Z,15.90
2022-11-02T12:59:43.784Z,15.80
2022-11-02T13:02:15.157Z,15.40
2022-11-02T13:04:50.251Z,15.40
2022-11-02T13:07:22.434Z,15.50
2022-11-02T13:10:03.529Z,15.50
2022-11-02T13:12:32.642Z,15.60
2022-11-02T13:15:00.049Z,15.60
2022-11-02T13:17:40.667Z,15.50
2022-11-02T13:20:16.173Z,16.30
2022-11-02T13:22:43.999Z,16.40
2022-11-02T13:25:22.294Z,17.00
2022-11-02T13:27:52.226Z,16.70
2022-11-02T13:30:19.572Z,17.40
2022-11-02T13:33:12.658Z,17.70
2022-11-02T13:35:41.074Z,17.10
2022-11-02T13:38:20.738Z,16.90
2022-11-02T13:40:50.142Z,17.10
2022-11-02T13:43:42.773Z,17.30
2022-11-02T13:46:17.644Z,17.80
2022-11-02T13:48:51.548Z,17.70
2022-11-02T13:51:28.182Z,16.90
2022-11-02T13:54:20.137Z,17.00
2022-11-02T13:56:47.790Z,17.00
2022-11-02T13:59:42.043Z,17.40
2022-11-02T14:02:15.413Z,17.90
2022-11-02T14:04:43.253Z,17.90
2022-11-02T14:07:22.073Z,18.10
2022-11-02T14:09:48.536Z,18.10
2022-11-02T14:12:21.264Z,18.30
2022-11-02T14:15:12.707Z,18.20
2022-11-02T14:17:54.916Z,17.60
2022-11-02T14:20:43.019Z,17.90
2022-11-02T14:23:09.496Z,17.40
2022-11-02T14:25:45.098Z,17.90
2022-11-02T14:28:20.588Z,17.70
2022-11-02T14:30:49.006Z,16.90
2022-11-02T14:33:22.882Z,17.10
2022-11-02T14:36:01.524Z,17.20
2022-11-02T14:38:50.420Z,17.00
2022-11-02T14:41:19.826Z,17.00
2022-11-02T14:44:01.451Z,17.00
2022-11-02T14:46:53.514Z,17.00
2022-11-02T14:49:24.047Z,16.40
2022-11-02T14:52:04.693Z,16.70
2022-11-02T14:54:33.739Z,16.90
2022-11-02T14:57:06.546Z,16.60
2022-11-02T14:59:40.804Z,16.50
2022-11-02T15:02:12.526Z,16.90
2022-11-02T15:04:48.986Z,16.20
2022-11-02T15:07:40.561Z,16.10
2022-11-02T15:10:32.509Z,16.00
2022-11-02T15:13:20.960Z,15.80
2022-11-02T15:15:50.536Z,15.80
2022-11-02T15:18:29.176Z,15.50
2022-11-02T15:21:11.054Z,15.80
2022-11-02T15:23:43.554Z,15.80
2022-11-02T15:26:16.269Z,15.50
2022-11-02T15:28:44.178Z,15.80
2022-11-02T15:31:25.825Z,15.60
2022-11-02T15:33:55.378Z,15.40
2022-11-02T15:36:23.016Z,15.80
2022-11-02T15:38:51.603Z,15.80
2022-11-02T15:41:30.195Z,15.40
2022-11-02T15:44:09.110Z,15.30
2022-11-02T15:46:44.795Z,15.40
2022-11-02T15:49:26.093Z,15.60
2022-11-02T15:52:00.629Z,15.00
2022-11-02T15:54:49.011Z,15.00
2022-11-02T15:57:19.751Z,15.10
2022-11-02T15:59:59.708Z,15.40
2022-11-02T16:02:28.422Z,15.20
2022-11-02T16:04:59.660Z,15.20
2022-11-02T16:07:33.461Z,14.90
2022-11-02T16:10:27.154Z,15.30
2022-11-02T16:13:14.301Z,15.20
2022-11-02T16:15:44.702Z,15.20
2022-11-02T16:18:29.091Z,15.10
2022-11-02T16:21:00.722Z,15.00
2022-11-02T16:23:29.248Z,14.90
2022-11-02T16:25:57.384Z,14.50
2022-11-02T16:28:31.982Z,14.30
2022-11-02T16:31:12.507Z,14.50
2022-11-02T16:33:47.135Z,14.40
2022-11-02T16:36:17.940Z,14.30
2022-11-02T16:39:17.709Z,14.40
2022-11-02T16:41:49.449Z,14.10
2022-11-02T16:44:29.668Z,14.30
2022-11-02T16:47:08.302Z,14.60
2022-11-02T16:49:42.793Z,14.70
2022-11-02T16:52:33.726Z,14.50
2022-11-02T16:55:00.734Z,14.30
2022-11-02T16:57:31.845Z,14.30
2022-11-02T17:00:01.222Z,14.20
2022-11-02T17:02:47.940Z,14.50
2022-11-02T17:05:16.839Z,14.30
2022-11-02T17:07:48.803Z,14.40
2022-11-02T17:10:20.792Z,14.70
2022-11-02T17:12:48.020Z,14.30
2022-11-02T17:15:25.789Z,14.00
2022-11-02T17:18:07.805Z,14.00
2022-11-02T17:20:35.783Z,13.80
2022-11-02T17:23:04.165Z,13.70
2022-11-02T17:25:33.335Z,13.80
2022-11-02T17:28:01.823Z,13.60
2022-11-02T17:30:34.509Z,14.10
2022-11-02T17:33:08.499Z,13.90
2022-11-02T17:35:35.190Z,14.00
2022-11-02T17:38:02.643Z,14.20
2022-11-02T17:40:29.471Z,14.10
2022-11-02T17:42:59.656Z,13.90
2022-11-02T17:45:30.970Z,14.20
2022-11-02T17:47:58.990Z,14.30
2022-11-02T17:50:27.138Z,14.40
2022-11-02T17:52:54.084Z,14.40
2022-11-02T17:55:29.062Z,14.40
2022-11-02T17:57:56.932Z,14.20
2022-11-02T18:00:24.382Z,14.20
2022-11-02T18:03:01.559Z,13.80
2022-11-02T18:05:38.007Z,13.80
2022-11-02T18:08:06.459Z,13.40
2022-11-02T18:10:44.089Z,13.10
2022-11-02T18:13:19.972Z,13.10
2022-11-02T18:15:46.877Z,13.00
2022-11-02T18:18:13.326Z,12.80
2022-11-02T18:20:42.053Z,12.80
2022-11-02T18:23:19.707Z,12.60
2022-11-02T18:25:46.568Z,12.80
2022-11-02T18:28:13.903Z,12.90
2022-11-02T18:30:42.872Z,12.80
2022-11-02T18:33:13.508Z,13.20
2022-11-02T18:35:40.387Z,13.50
2022-11-02T18:38:07.238Z,13.70
2022-11-02T18:40:35.634Z,14.00
2022-11-02T18:43:02.387Z,14.00
2022-11-02T18:48:00.979Z,14.20
2022-11-02T18:50:29.380Z,14.20
2022-11-02T18:52:55.927Z,14.00
2022-11-02T18:55:22.395Z,14.00
2022-11-02T18:57:50.759Z,14.00
2022-11-02T19:00:17.712Z,13.90
2022-11-02T19:02:44.249Z,13.80
2022-11-02T19:05:30.731Z,14.10
2022-11-02T19:08:18.936Z,14.20
2022-11-02T19:10:47.363Z,14.00
2022-11-02T19:13:13.884Z,13.80
2022-11-02T19:15:42.683Z,13.60
2022-11-02T19:18:09.603Z,13.20
2022-11-02T19:20:36.111Z,13.20
2022-11-02T19:23:02.714Z,13.40
2022-11-02T19:25:29.136Z,13.50
2022-11-02T19:27:55.668Z,13.60
2022-11-02T19:30:22.133Z,13.70
2022-11-02T19:32:48.674Z,13.60
2022-11-02T19:35:18.302Z,13.60
2022-11-02T19:37:44.795Z,13.60
2022-11-02T19:40:12.459Z,13.50
2022-11-02T19:42:39.718Z,13.30
2022-11-02T19:45:06.442Z,13.30
2022-11-02T19:47:33.923Z,13.40
2022-11-02T19:50:00.406Z,13.20
2022-11-02T19:52:26.942Z,13.30
2022-11-02T19:54:53.465Z,13.10
2022-11-02T19:57:19.938Z,12.00
2022-11-02T19:59:46.728Z,12.00
2022-11-02T20:02:13.261Z,12.50
2022-11-02T20:04:42.562Z,12.70
2022-11-02T20:07:09.327Z,12.80
2022-11-02T20:09:35.952Z,12.30
2022-11-02T20:12:04.245Z,12.60
2022-11-02T20:14:30.967Z,12.40
2022-11-02T20:17:10.592Z,12.50
2022-11-02T20:19:44.168Z,12.60
2022-11-02T20:22:10.622Z,12.30
2022-11-02T20:24:39.514Z,12.50
2022-11-02T20:27:07.045Z,12.40
2022-11-02T20:29:33.598Z,12.50
2022-11-02T20:32:00.107Z,12.40
2022-11-02T20:34:26.551Z,12.20
2022-11-02T20:36:53.123Z,12.30
2022-11-02T20:39:22.490Z,12.30
2022-11-02T20:41:52.601Z,11.90
2022-11-02T20:44:20.784Z,11.70
2022-11-02T20:46:52.683Z,11.90
2022-11-02T20:49:22.275Z,12.10
2022-11-02T20:51:56.036Z,11.90
2022-11-02T20:54:22.874Z,11.90
2022-11-02T20:56:50.014Z,11.80
2022-11-02T20:59:17.273Z,11.90
2022-11-02T21:01:43.994Z,12.00
2022-11-02T21:04:15.327Z,11.90
2022-11-02T21:06:46.154Z,11.80
2022-11-02T21:09:12.891Z,11.70
2022-11-02T21:11:58.021Z,11.70
2022-11-02T21:14:24.729Z,11.40
2022-11-02T21:16:51.244Z,11.30
2022-11-02T21:19:17.806Z,11.50
2022-11-02T21:21:44.953Z,11.90
2022-11-02T21:24:11.547Z,11.90
2022-11-02T21:26:38.092Z,11.90
2022-11-02T21:29:04.591Z,11.80
2022-11-02T21:31:31.116Z,11.50
2022-11-02T21:33:57.594Z,11.40
2022-11-02T21:36:24.078Z,11.40
2022-11-02T21:38:50.879Z,11.20
2022-11-02T21:41:19.806Z,10.50
2022-11-02T21:43:46.363Z,10.10
2022-11-02T21:46:12.942Z,10.20
2022-11-02T21:48:39.565Z,10.10
2022-11-02T21:51:11.913Z,9.70
2022-11-02T21:53:40.534Z,9.40
2022-11-02T21:56:08.126Z,9.60
2022-11-02T21:58:35.274Z,10.00
2022-11-02T22:01:25.970Z,10.40
2022-11-02T22:03:52.707Z,10.80
2022-11-02T22:06:20.991Z,10.80
2022-11-02T22:08:48.264Z,10.50
2022-11-02T22:11:16.910Z,10.60
2022-11-02T22:13:46.304Z,10.60
2022-11-02T22:16:17.975Z,10.90
2022-11-02T22:18:45.784Z,11.00
2022-11-02T22:21:12.934Z,10.80
2022-11-02T22:23:39.938Z,11.00
2022-11-02T22:26:09.633Z,11.00
2022-11-02T22:28:38.423Z,10.60
2022-11-02T22:31:10.459Z,10.70
2022-11-02T22:33:37.294Z,10.70
2022-11-02T22:36:05.744Z,10.60
2022-11-02T22:38:51.251Z,10.90
2022-11-02T22:41:20.763Z,10.60
2022-11-02T22:43:47.645Z,10.90
2022-11-02T22:46:14.807Z,10.80
2022-11-02T22:48:41.736Z,10.60
2022-11-02T22:51:08.693Z,10.70
2022-11-02T22:53:35.321Z,10.40
2022-11-02T22:56:03.619Z,10.30
2022-11-02T22:58:31.394Z,10.80
2022-11-02T23:00:57.965Z,10.80
2022-11-02T23:03:24.786Z,10.80
2022-11-02T23:05:51.533Z,10.80
2022-11-02T23:08:18.907Z,11.10
2022-11-02T23:11:04.293Z,11.10
2022-11-02T23:13:30.874Z,10.70
2022-11-02T23:16:23.204Z,10.70
2022-11-02T23:19:22.035Z,10.90
2022-11-02T23:22:22.793Z,11.10
2022-11-02T23:25:12.463Z,10.60
2022-11-02T23:28:16.720Z,10.60
2022-11-02T23:31:02.327Z,10.60
2022-11-02T23:33:33.811Z,10.60
2022-11-02T23:36:13.660Z,10.20
2022-11-02T23:39:02.841Z,10.00
2022-11-02T23:41:30.579Z,10.50
2022-11-02T23:44:13.970Z,10.60
2022-11-02T23:46:41.785Z,10.50
2022-11-02T23:49:08.529Z,10.70
2022-11-02T23:51:53.664Z,10.40
2022-11-02T23:54:39.115Z,9.70
2022-11-02T23:57:05.782Z,9.60
2022-11-02T23:59:32.285Z,10.30
